METAR Data
IDs: Format: Raw Decoded Include TAF

Data at: 1046 UTC 18 Jan 2022

KRUG 181035Z AUTO 10005KT 4SM BR FEW070 SCT080 BKN110 M07/M07 A2934 RMK AO2
KRUG 181015Z AUTO 09006KT 4SM BR BKN100 BKN120 M07/M07 A2935 RMK AO2
KRUG 180955Z AUTO 10004G10KT 4SM BR FEW065 SCT075 OVC095 M06/M06 A2935 RMK AO2
KRUG 180935Z AUTO 15008KT 4SM BR FEW003 SCT060 BKN075 M05/M05 A2935 RMK AO2
KRUG 180915Z AUTO 15010G15KT 4SM BR SCT003 BKN065 OVC075 M05/M05 A2936 RMK AO2
KRUG 180855Z AUTO 15015KT 4SM BR OVC003 M06/M06 A2935 RMK AO2
KRUG 180835Z AUTO 14014KT 3SM BR OVC003 M06/M06 A2937 RMK AO2
KRUG 180815Z AUTO 13012G17KT 3SM BR OVC003 M06/M06 A2940 RMK AO2
KRUG 180755Z AUTO 13013KT 3SM BR OVC003 M06/M06 A2941 RMK AO2
KRUG 180735Z AUTO 13012KT 2 1/2SM BR OVC003 M06/M06 A2943 RMK AO2
KRUG 180715Z AUTO 12013KT 1 1/2SM BR OVC003 M06/M06 A2944 RMK AO2
KRUG 180655Z AUTO 13013G18KT 1 3/4SM BR OVC003 M06/M06 A2944 RMK AO2
KRUG 180635Z AUTO 13014KT 2 1/2SM BR OVC003 M06/M06 A2946 RMK AO2
KRUG 180615Z AUTO 13014KT 3SM BR OVC003 M07/M06 A2948 RMK AO2
KRUG 180555Z AUTO 12015KT 5SM BR OVC004 M07/M07 A2949 RMK AO2
KRUG 180535Z AUTO 12015KT 5SM BR OVC003 M07/M07 A2951 RMK AO2
KRUG 180515Z AUTO 12013KT 6SM BR OVC004 M07/M07 A2953 RMK AO2
KRUG 180455Z AUTO 13013G18KT 6SM BR OVC004 M07/M07 A2954 RMK AO2
KRUG 180435Z AUTO 14015KT 7SM OVC005 M07/M07 A2956 RMK AO2
KRUG 180415Z AUTO 14017KT 10SM OVC005 M07/M07 A2956 RMK AO2
KRUG 180355Z AUTO 13019KT 9SM OVC006 M07/M08 A2957 RMK AO2
KRUG 180335Z AUTO 13017G22KT 10SM OVC008 M07/M08 A2960 RMK AO2
KRUG 180315Z AUTO 13012KT 10SM OVC009 M07/M08 A2963 RMK AO2
KRUG 180255Z AUTO 12012KT 10SM OVC009 M07/M08 A2964 RMK AO2
KRUG 180235Z AUTO 11012KT 10SM OVC009 M07/M08 A2965 RMK AO2
KRUG 180215Z AUTO 12012KT 10SM OVC009 M07/M08 A2966 RMK AO2
KRUG 180155Z AUTO 11015KT 10SM OVC008 M07/M08 A2964 RMK AO2
KRUG 180135Z AUTO 11017KT 10SM OVC008 M07/M08 A2966 RMK AO2
KRUG 180115Z AUTO 11016KT 10SM OVC009 M08/M08 A2967 RMK AO2
KRUG 180055Z AUTO 11016KT 10SM OVC009 M08/M08 A2967 RMK AO2
KRUG 180035Z AUTO 11015KT 10SM BKN010 OVC070 M08/M08 A2968 RMK AO2
KRUG 180015Z AUTO 10013KT 10SM SCT009 OVC070 M08/M08 A2969 RMK AO2
KRUG 172355Z AUTO 10017KT 10SM OVC008 M08/M08 A2969 RMK AO2
KRUG 172335Z AUTO 10015KT 10SM OVC007 M08/M08 A2970 RMK AO2
KRUG 172315Z AUTO 10014KT 10SM OVC007 M08/M08 A2970 RMK AO2
KRUG 172255Z AUTO 10018KT 10SM OVC007 M07/M08 A2970 RMK AO2
KRUG 172235Z AUTO 09016KT 10SM BKN008 OVC070 M07/M08 A2971 RMK AO2
KRUG 172215Z AUTO 10016KT 10SM SCT008 BKN070 OVC085 M07/M07 A2971 RMK AO2
KRUG 172155Z AUTO 09017KT 10SM OVC007 M06/M07 A2971 RMK AO2
KRUG 172135Z AUTO 09018KT 10SM OVC006 M06/M06 A2972 RMK AO2
KRUG 172115Z AUTO 09019KT 10SM OVC006 M06/M06 A2972 RMK AO2
KRUG 172055Z AUTO 09018KT 10SM BKN006 OVC040 M06/M06 A2972 RMK AO2
KRUG 172035Z AUTO 09020KT 9SM OVC006 M06/M06 A2972 RMK AO2
KRUG 172015Z AUTO 09020KT 9SM OVC005 M05/M05 A2972 RMK AO2
KRUG 171955Z AUTO 08019KT 10SM OVC005 M06/M05 A2973 RMK AO2
KRUG 171935Z AUTO 09018KT 9SM OVC006 M05/M05 A2974 RMK AO2
KRUG 171915Z AUTO 09016KT 9SM OVC006 M05/M05 A2973 RMK AO2
KRUG 171855Z AUTO 09018KT 9SM OVC006 M05/M05 A2976 RMK AO2
KRUG 171835Z AUTO 09017KT 10SM BKN007 M05/M05 A2976 RMK AO2
KRUG 171815Z AUTO 08015KT 9SM BKN007 OVC080 M05/M05 A2977 RMK AO2
KRUG 171755Z AUTO 08016KT 9SM FEW007 OVC080 M05/M05 A2977 RMK AO2
KRUG 171735Z AUTO 08014KT 9SM SCT065 BKN080 M05/M05 A2977 RMK AO2
KRUG 171715Z AUTO 08016KT 10SM OVC065 M05/M05 A2977 RMK AO2
KRUG 171655Z AUTO 08013KT 10SM BKN070 OVC095 M05/M05 A2976 RMK AO2
KRUG 171635Z AUTO 08014KT 10SM BKN065 BKN090 M05/M05 A2976 RMK AO2
KRUG 171615Z AUTO 08013KT 10SM BKN065 OVC075 M05/M05 A2976 RMK AO2
KRUG 171555Z AUTO 08012KT 10SM BKN075 BKN095 M05/M05 A2975 RMK AO2
KRUG 171535Z AUTO 09009KT 10SM BKN060 BKN080 OVC095 M05/M05 A2974 RMK AO2
KRUG 171515Z AUTO 10008KT 10SM OVC060 M05/M05 A2975 RMK AO2
KRUG 171455Z AUTO 11007KT 10SM OVC060 M05/M05 A2974 RMK AO2
KRUG 171435Z AUTO 09008KT 9SM FEW002 OVC060 M05/M05 A2974 RMK AO2
KRUG 171415Z AUTO 10005KT 8SM -UP FEW003 SCT034 OVC060 M05/M05 A2975 RMK AO2
KRUG 171355Z AUTO 07006KT 8SM -UP FEW025 SCT034 OVC060 M05/M05 A2976 RMK AO2
KRUG 171335Z AUTO 04004KT 10SM FEW044 FEW055 OVC060 M05/M05 A2975 RMK AO2
KRUG 171315Z AUTO 00000KT 10SM FEW037 SCT044 OVC065 M06/M06 A2976 RMK AO2
KRUG 171255Z AUTO 00000KT 10SM BKN060 OVC075 M06/M06 A2976 RMK AO2
KRUG 171235Z AUTO 22004KT 10SM BKN055 OVC065 M05/M05 A2975 RMK AO2
KRUG 171215Z AUTO 22004KT 10SM FEW039 BKN050 OVC060 M05/M05 A2975 RMK AO2
KRUG 171155Z AUTO 22006KT 10SM FEW050 FEW055 OVC070 M05/M06 A2976 RMK AO2
KRUG 171135Z AUTO 22005KT 10SM OVC075 M06/M06 A2977 RMK AO2
KRUG 171115Z AUTO 23004KT 10SM BKN065 OVC075 M06/M06 A2977 RMK AO2
KRUG 171055Z AUTO 23004KT 10SM OVC075 M06/M06 A2976 RMK AO2
KRUG 171035Z AUTO 24006KT 10SM OVC075 M06/M06 A2977 RMK AO2
KRUG 171015Z AUTO 24005KT 10SM FEW060 SCT070 OVC080 M07/M07 A2977 RMK AO2
KRUG 170955Z AUTO 24006KT 10SM FEW050 BKN060 OVC070 M07/M07 A2977 RMK AO2
KRUG 170935Z AUTO 22004KT 10SM SCT050 BKN070 OVC080 M06/M07 A2978 RMK AO2
KRUG 170915Z AUTO 23005KT 10SM FEW060 OVC075 M06/M06 A2978 RMK AO2
KRUG 170855Z AUTO 24003KT 10SM SCT075 OVC110 M06/M07 A2979 RMK AO2
KRUG 170835Z AUTO 24003KT 10SM OVC110 M06/M07 A2979 RMK AO2
KRUG 170815Z AUTO 25007KT 10SM BKN120 M06/M07 A2979 RMK AO2
KRUG 170755Z AUTO 25007KT 10SM FEW120 M07/M07 A2981 RMK AO2
KRUG 170735Z AUTO 25008KT 10SM CLR M08/M08 A2981 RMK AO2
KRUG 170715Z AUTO 24009KT 10SM CLR M08/M08 A2981 RMK AO2
KRUG 170655Z AUTO 24006KT 10SM CLR M09/M09 A2981 RMK AO2
KRUG 170635Z AUTO 25009KT 10SM CLR M08/M09 A2982 RMK AO2
KRUG 170615Z AUTO 24011KT 10SM CLR M08/M08 A2983 RMK AO2
KRUG 170555Z AUTO 25011KT 10SM CLR M08/M08 A2984 RMK AO2
KRUG 170535Z AUTO 26011KT 10SM CLR M07/M07 A2984 RMK AO2
KRUG 170515Z AUTO 26009KT 10SM CLR M07/M07 A2984 RMK AO2
KRUG 170455Z AUTO 26010KT 10SM CLR M06/M07 A2984 RMK AO2
KRUG 170435Z AUTO 26013KT 10SM CLR M06/M06 A2985 RMK AO2
KRUG 170415Z AUTO 26012KT 10SM SCT024 M04/M05 A2985 RMK AO2
KRUG 170355Z AUTO 26012KT 10SM FEW014 OVC023 M03/M03 A2985 RMK AO2
KRUG 170335Z AUTO 26012KT 10SM OVC022 M02/M03 A2986 RMK AO2
KRUG 170315Z AUTO 26013KT 10SM OVC020 M02/M02 A2987 RMK AO2
KRUG 170255Z AUTO 27009KT 10SM OVC019 M02/M02 A2988 RMK AO2
KRUG 170235Z AUTO 27009KT 10SM OVC019 M02/M01 A2988 RMK AO2
KRUG 170215Z AUTO 27009KT 10SM BKN013 OVC019 M02/M01 A2989 RMK AO2
KRUG 170155Z AUTO 26011KT 10SM BKN012 OVC020 M02/M02 A2989 RMK AO2
KRUG 170135Z AUTO 27010KT 10SM OVC011 M02/M02 A2989 RMK AO2
KRUG 170115Z AUTO 26009KT 10SM BKN014 OVC021 M02/M02 A2989 RMK AO2
KRUG 170055Z AUTO 25008KT 10SM OVC022 M02/M02 A2988 RMK AO2
KRUG 170035Z AUTO 26008KT 10SM FEW010 OVC022 M02/M02 A2990 RMK AO2
KRUG 170015Z AUTO 25007KT 10SM BKN010 OVC016 M02/M02 A2990 RMK AO2
KRUG 162355Z AUTO 26008KT 10SM OVC016 M02/M03 A2991 RMK AO2
KRUG 162335Z AUTO 27006KT 10SM OVC020 M02/M03 A2992 RMK AO2
KRUG 162315Z AUTO 28008KT 10SM OVC023 M02/M03 A2991 RMK AO2
KRUG 162255Z AUTO 28009KT 10SM OVC024 M02/M03 A2990 RMK AO2